KBLU/BLU METAR and TAF weather

Enter ICAO airport designator
Station Type Date Time Source
KBLU METAR 2020/01/18 03:52 UTC NOAA

KBLU 180352Z AUTO 10005KT 10SM SCT120 M01/M08 A3023 RMK AO2 SLP264 T10111083


Station Type Date Time Source
KBLU Decoded METAR 2020/01/18 03:52 UTC NOAA

BLUE CANYON AIRPORT, CA, United States (KBLU) 39-17N 120-42W 1609M
Jan 17, 2020 - 10:52 PM EST / 2020.01.18 0352 UTC
Wind: from the E (100 degrees) at 6 MPH (5 KT):0
Visibility: 10 mile(s):0
Sky conditions: partly cloudy
Temperature: 30.0 F (-1.1 C)
Windchill: 23 F (-5 C):1
Dew Point: 17.1 F (-8.3 C)
Relative Humidity: 58%
Pressure (altimeter): 30.23 in. Hg (1023 hPa)
ob: KBLU 180352Z AUTO 10005KT 10SM SCT120 M01/M08 A3023 RMK AO2 SLP264 T10111083
cycle: 4

Station Type Date Time Source
KBLU TAF UTC NOAA

Error!

Example: see airport list